Terminal Aerodrome Forecast
Issued by NWS

Home | Current Version | Previous Version | Text Only | Print | Product List | Glossary On
Versions: 1 2 3 4 5 6 7 8 9 10 11 12 13
000
FTUS44 KSJT 081137
TAFBBD
TAF
KBBD 081137Z 0812/0912 02014G20KT P6SM BKN012
     FM081800 03012G18KT P6SM OVC025
     FM090000 36009KT P6SM BKN050
      AMD NOT SKED=

USA.gov is the U.S. government's official web portal to all federal, state and local government web resources and services.